aviador You're here:

KGSO Decoded Metar

GREENSBORO in NC, USA
Report Time2018-07-17 20:54:00
UTC Time2018-07-17 21:09:15
Flight Rules vfr VFR
Wind300° at 20 Gusting to 26 kt
W.Decomp.*RWY 32: 19.6 kt HW 4.2 kt LCW
RWY 23: 4.2 kt HW 19.6 kt RCW
W.Rank300° ranks 16
Current wind is above 300° avg. (8.6)
Visibility9999 m
Phenomena:N/A
Clouds:Broken CB 050 Hf
Broken 250 Hf
Expected CloudBase > 2,800 ft AGL from Temp-Dew spread
Ceiling5,000 ft
Temp28°C (ISA +15)
Dew Point21°C (66% RH)
Heat Index30.2°C
AAT25.0°C
QNH1012 hPa
Density Alt2,966 ft
Elevation902 ft
Report Wrong Elevation
Raw Report
KGSO 172054Z COR 30020G26KT 10SM BKN050CB BKN250 28/21 A2989 RMK
AO2 PK WND 29026/2048 SLP110 CB OHD MOV E T02830211 55009=

Extra information for KGSO:More info

Metar Taf Metar & Taf Last 4 Metars F.Rules Stats Wind Profile Meteogram Temp Stats Airport Information Weather charts Add Link Nearby VenuesMetar ALERT Operation Metar Decoded Social comments

AIRNAV info for KGSO